Time;durP1;ratioP1;P1;durP2;ratioP2;P2;SDS_P1;SDS_P2;PMS_P1;PMS_P2;Temp;Humidity;BMP_temperature;BMP_pressure;BME280_temperature;BME280_humidity;BME280_pressure;Samples;Min_cycle;Max_cycle;Signal;HPM_P1;HPM_P2
2022/07/01 00:01:29;;;;;;;2.00;1.00;;;23.80;60.30;;;;;;4986611;28;20082;-66
2022/07/01 00:03:54;;;;;;;2.38;1.08;;;23.80;60.30;;;;;;4985620;28;20046;-66
2022/07/01 00:06:20;;;;;;;2.05;1.10;;;23.90;60.40;;;;;;4986337;28;20459;-68
2022/07/01 00:08:47;;;;;;;1.73;1.00;;;23.80;60.30;;;;;;4985816;28;20052;-67
2022/07/01 00:11:13;;;;;;;1.77;1.10;;;23.90;60.40;;;;;;4985394;28;20038;-66
2022/07/01 00:13:38;;;;;;;2.53;1.08;;;23.80;60.30;;;;;;4986982;28;20043;-65
2022/07/01 00:16:04;;;;;;;1.55;1.00;;;23.80;60.30;;;;;;4985205;28;20497;-65
2022/07/01 00:18:30;;;;;;;2.67;0.95;;;23.80;60.30;;;;;;4982931;28;20085;-70
2022/07/01 00:20:56;;;;;;;2.28;0.98;;;23.80;60.30;;;;;;4984304;28;20054;-65
2022/07/01 00:23:22;;;;;;;2.72;1.00;;;23.80;60.30;;;;;;4985151;28;20042;-67
2022/07/01 00:25:48;;;;;;;2.83;0.95;;;23.80;60.20;;;;;;4986003;28;20100;-69
2022/07/01 00:28:13;;;;;;;1.88;1.08;;;23.80;60.20;;;;;;4985075;28;20058;-68
2022/07/01 00:30:39;;;;;;;1.05;0.88;;;23.80;60.20;;;;;;4984679;28;20133;-67
2022/07/01 00:33:05;;;;;;;3.70;0.85;;;23.80;60.20;;;;;;4984701;28;20050;-70
2022/07/01 00:35:30;;;;;;;1.75;0.90;;;23.70;60.10;;;;;;4985979;28;20046;-69
2022/07/01 00:37:57;;;;;;;2.33;1.00;;;23.70;60.20;;;;;;4985186;28;20046;-69
2022/07/01 00:40:23;;;;;;;1.98;0.93;;;23.70;60.20;;;;;;4985039;28;20089;-69
2022/07/01 00:42:49;;;;;;;2.90;0.90;;;23.70;60.20;;;;;;4985692;28;20062;-70
2022/07/01 00:45:14;;;;;;;2.70;1.13;;;23.70;60.20;;;;;;4986693;28;20469;-68
2022/07/01 00:47:42;;;;;;;2.08;0.90;;;23.80;60.20;;;;;;4985822;28;20074;-69
2022/07/01 00:50:09;;;;;;;2.00;0.95;;;23.70;60.10;;;;;;4986446;28;20525;-69
2022/07/01 00:52:35;;;;;;;6.28;1.00;;;23.70;60.10;;;;;;4985567;28;20046;-70
2022/07/01 00:55:06;;;;;;;2.20;0.80;;;23.70;60.10;;;;;;4985595;28;20046;-70
2022/07/01 00:57:33;;;;;;;2.03;0.90;;;23.70;60.10;;;;;;4986459;28;20117;-68
2022/07/01 01:00:01;;;;;;;2.58;0.90;;;23.70;60.10;;;;;;4985314;28;20320;-69
2022/07/01 01:02:26;;;;;;;1.67;0.80;;;23.70;60.10;;;;;;4986468;28;20050;-70
2022/07/01 01:04:52;;;;;;;1.70;0.70;;;23.70;60.20;;;;;;4985346;28;20498;-70
2022/07/01 01:07:17;;;;;;;1.67;0.75;;;23.70;60.10;;;;;;4985320;28;20054;-69
2022/07/01 01:09:44;;;;;;;2.20;0.88;;;23.70;60.10;;;;;;4987119;28;20038;-69
2022/07/01 01:12:11;;;;;;;2.10;0.80;;;23.70;60.10;;;;;;4984909;28;20425;-68
2022/07/01 01:14:50;;;;;;;2.00;0.90;;;23.70;60.10;;;;;;4976735;28;20047;-69
2022/07/01 01:17:16;;;;;;;2.30;0.70;;;23.60;60.00;;;;;;4985533;28;20053;-69
2022/07/01 01:19:43;;;;;;;1.60;0.90;;;23.60;60.10;;;;;;4986493;28;20374;-70
2022/07/01 01:22:09;;;;;;;1.77;0.80;;;23.60;60.10;;;;;;4987107;28;20043;-68
2022/07/01 01:24:38;;;;;;;3.08;0.85;;;23.60;60.10;;;;;;4990005;28;20034;-69
2022/07/01 01:27:05;;;;;;;2.58;0.80;;;23.60;60.10;;;;;;4989750;28;20054;-69
2022/07/01 01:29:31;;;;;;;1.38;0.65;;;23.60;60.10;;;;;;4988092;28;20038;-66
2022/07/01 01:31:57;;;;;;;2.03;0.75;;;23.60;60.10;;;;;;4989547;28;20113;-64
2022/07/01 01:34:22;;;;;;;2.42;0.77;;;23.60;60.10;;;;;;4988517;28;20089;-64
2022/07/01 01:36:48;;;;;;;1.65;0.70;;;23.60;60.10;;;;;;4987986;28;20050;-65
2022/07/01 01:39:16;;;;;;;2.58;0.80;;;23.60;60.10;;;;;;4988894;28;20054;-65
2022/07/01 01:41:43;;;;;;;2.50;0.75;;;23.60;60.00;;;;;;4988495;28;20092;-66
2022/07/01 01:44:09;;;;;;;1.77;0.70;;;23.60;60.10;;;;;;4987886;28;20603;-65
2022/07/01 01:46:36;;;;;;;3.05;0.63;;;23.50;60.00;;;;;;4988520;28;20201;-65
2022/07/01 01:49:02;;;;;;;2.10;0.80;;;23.60;60.00;;;;;;4989187;28;20092;-66
2022/07/01 01:51:28;;;;;;;1.70;0.70;;;23.60;60.00;;;;;;4987456;28;20429;-66
2022/07/01 01:53:55;;;;;;;1.25;0.60;;;23.60;60.00;;;;;;4989118;28;20054;-65
2022/07/01 01:56:21;;;;;;;1.10;0.60;;;23.60;60.00;;;;;;4988261;28;20221;-65
2022/07/01 01:58:46;;;;;;;2.80;0.68;;;23.60;60.00;;;;;;4989186;28;20046;-65
2022/07/01 02:01:13;;;;;;;1.15;0.50;;;23.50;60.00;;;;;;4987986;28;20093;-66
2022/07/01 02:03:40;;;;;;;0.90;0.70;;;23.60;60.00;;;;;;4988207;28;20042;-65
2022/07/01 02:06:07;;;;;;;1.50;0.60;;;23.50;60.00;;;;;;4988404;28;20140;-65
2022/07/01 02:08:33;;;;;;;1.00;0.60;;;23.50;59.90;;;;;;4987740;28;20453;-71
2022/07/01 02:10:59;;;;;;;1.42;0.80;;;23.50;60.00;;;;;;4988647;28;20411;-67
2022/07/01 02:13:24;;;;;;;1.52;0.60;;;23.50;59.90;;;;;;4985453;28;20055;-66
2022/07/01 02:15:50;;;;;;;1.13;0.43;;;23.50;60.00;;;;;;4988710;28;20046;-65
2022/07/01 02:18:17;;;;;;;1.08;0.60;;;23.50;60.00;;;;;;4987760;28;20494;-70
2022/07/01 02:20:43;;;;;;;1.33;0.60;;;23.50;60.00;;;;;;4987239;28;20595;-65
2022/07/01 02:23:09;;;;;;;1.00;0.52;;;23.50;60.00;;;;;;4987872;28;20049;-69
2022/07/01 02:25:36;;;;;;;2.05;0.57;;;23.50;60.00;;;;;;4988140;28;20046;-65
2022/07/01 02:28:02;;;;;;;0.93;0.50;;;23.50;59.90;;;;;;4989058;28;20046;-70
2022/07/01 02:30:30;;;;;;;0.77;0.50;;;23.50;59.90;;;;;;4986570;28;20035;-66
2022/07/01 02:32:56;;;;;;;1.45;0.57;;;23.50;59.90;;;;;;4987969;28;20611;-67
2022/07/01 02:35:22;;;;;;;0.85;0.40;;;23.50;60.70;;;;;;4986775;28;20393;-66
2022/07/01 02:37:48;;;;;;;1.05;0.40;;;23.50;59.90;;;;;;4987898;28;20353;-65
2022/07/01 02:40:14;;;;;;;1.58;0.47;;;23.50;59.90;;;;;;4987620;28;20053;-65
2022/07/01 02:42:39;;;;;;;1.95;0.60;;;23.50;59.90;;;;;;4986447;28;20053;-66
2022/07/01 02:45:07;;;;;;;1.08;0.60;;;23.50;59.90;;;;;;4987571;28;20133;-68
2022/07/01 02:47:37;;;;;;;1.45;0.60;;;23.40;59.80;;;;;;4985813;28;20065;-64
2022/07/01 02:50:04;;;;;;;1.50;0.60;;;23.50;59.90;;;;;;4988766;28;20046;-68
2022/07/01 02:52:30;;;;;;;0.90;0.50;;;23.40;59.80;;;;;;4986626;28;20045;-68
2022/07/01 02:54:56;;;;;;;1.05;0.60;;;23.40;59.80;;;;;;4988463;28;20104;-70
2022/07/01 02:57:22;;;;;;;0.98;0.45;;;23.40;59.80;;;;;;4986425;28;20042;-68
2022/07/01 02:59:48;;;;;;;0.93;0.50;;;23.40;59.90;;;;;;4986244;28;20065;-70
2022/07/01 03:02:14;;;;;;;2.88;0.52;;;23.40;59.80;;;;;;4987581;28;20070;-70
2022/07/01 03:04:39;;;;;;;0.88;0.60;;;23.40;59.80;;;;;;4986723;28;20093;-70
2022/07/01 03:07:05;;;;;;;1.60;0.60;;;23.40;59.80;;;;;;4987159;28;20512;-69
2022/07/01 03:09:30;;;;;;;0.80;0.30;;;23.40;59.80;;;;;;4986650;28;20421;-68
2022/07/01 03:11:56;;;;;;;0.45;0.45;;;23.40;59.80;;;;;;4986918;28;20034;-69
2022/07/01 03:14:21;;;;;;;0.68;0.40;;;23.40;59.80;;;;;;4986342;28;20089;-70
2022/07/01 03:16:47;;;;;;;3.03;0.50;;;23.40;59.80;;;;;;4987493;28;20035;-69
2022/07/01 03:19:13;;;;;;;0.88;0.50;;;23.40;59.80;;;;;;4986554;28;20054;-70
2022/07/01 03:21:38;;;;;;;1.00;0.50;;;23.40;59.80;;;;;;4986528;28;20038;-70
2022/07/01 03:24:04;;;;;;;0.68;0.50;;;23.40;59.80;;;;;;4987224;28;20042;-70
2022/07/01 03:26:30;;;;;;;1.10;0.50;;;23.40;59.70;;;;;;4986565;28;20405;-70
2022/07/01 03:28:55;;;;;;;0.73;0.32;;;23.40;59.80;;;;;;4987429;28;20038;-67
2022/07/01 03:31:21;;;;;;;1.02;0.40;;;23.40;59.70;;;;;;4984498;28;20126;-68
2022/07/01 03:33:47;;;;;;;0.82;0.40;;;23.40;59.80;;;;;;4987174;28;20408;-70
2022/07/01 03:36:13;;;;;;;0.90;0.50;;;23.40;59.70;;;;;;4986269;28;20260;-69
2022/07/01 03:38:38;;;;;;;0.93;0.40;;;23.30;59.60;;;;;;4987037;28;20065;-69
2022/07/01 03:41:04;;;;;;;0.80;0.45;;;23.30;59.70;;;;;;4986944;28;20038;-67
2022/07/01 03:43:30;;;;;;;0.80;0.40;;;23.30;59.70;;;;;;4984703;28;20508;-69
2022/07/01 03:45:55;;;;;;;3.53;0.50;;;23.30;59.70;;;;;;4982262;28;20228;-66
2022/07/01 03:48:21;;;;;;;0.88;0.47;;;23.30;59.60;;;;;;4985609;28;20045;-68
2022/07/01 03:50:46;;;;;;;2.15;0.55;;;23.30;59.60;;;;;;4984687;28;20053;-68
2022/07/01 03:55:56;;;;;;;0.70;0.40;;;23.30;59.60;;;;;;4986908;28;20047;-67
2022/07/01 03:58:22;;;;;;;0.80;0.40;;;23.30;59.60;;;;;;4986608;28;20046;-67
2022/07/01 04:00:47;;;;;;;0.60;0.40;;;23.30;59.60;;;;;;4985606;28;20545;-65
2022/07/01 04:03:14;;;;;;;1.00;0.50;;;23.30;59.60;;;;;;4986833;28;20039;-66
2022/07/01 04:05:40;;;;;;;0.45;0.30;;;23.30;59.60;;;;;;4985100;28;20054;-70
2022/07/01 04:08:11;;;;;;;0.40;0.30;;;23.30;59.60;;;;;;4986953;28;20085;-67
2022/07/01 04:10:37;;;;;;;1.40;0.50;;;23.30;59.60;;;;;;4985919;28;20100;-66
2022/07/01 04:13:03;;;;;;;0.68;0.50;;;23.30;59.60;;;;;;4986469;28;20124;-67
2022/07/01 04:15:29;;;;;;;1.08;0.40;;;23.30;59.60;;;;;;4986978;28;20485;-68
2022/07/01 04:17:55;;;;;;;0.68;0.30;;;23.30;59.60;;;;;;4986545;28;20120;-68
2022/07/01 04:20:20;;;;;;;0.50;0.40;;;23.30;59.60;;;;;;4985978;28;20104;-67
2022/07/01 04:22:46;;;;;;;2.97;0.43;;;23.20;59.50;;;;;;4985047;28;20046;-65
2022/07/01 04:25:12;;;;;;;1.27;0.57;;;23.20;59.50;;;;;;4987204;28;20109;-68
2022/07/01 04:27:38;;;;;;;0.60;0.50;;;23.20;59.60;;;;;;4984385;28;20048;-66
2022/07/01 04:30:04;;;;;;;11.13;0.52;;;23.30;59.60;;;;;;4986371;28;20046;-70
2022/07/01 04:32:30;;;;;;;5.22;0.47;;;23.30;60.30;;;;;;4985821;28;20413;-70
2022/07/01 04:34:56;;;;;;;7.72;0.50;;;23.20;59.50;;;;;;4986019;28;20079;-68
2022/07/01 04:37:22;;;;;;;2.08;0.30;;;23.20;59.50;;;;;;4985790;28;20129;-70
2022/07/01 04:39:47;;;;;;;5.30;0.50;;;23.20;59.50;;;;;;4986587;28;20047;-69
2022/07/01 04:42:14;;;;;;;2.58;0.60;;;23.20;59.50;;;;;;4986610;28;20317;-68
2022/07/01 04:44:40;;;;;;;5.75;0.50;;;23.20;59.50;;;;;;4985488;28;20046;-69
2022/07/01 04:47:06;;;;;;;1.30;0.50;;;23.20;59.60;;;;;;4986627;28;20467;-66
2022/07/01 04:49:32;;;;;;;6.38;0.50;;;23.20;59.60;;;;;;4984947;28;20061;-69
2022/07/01 04:51:58;;;;;;;1.58;0.50;;;23.20;59.50;;;;;;4986247;28;20046;-70
2022/07/01 04:54:25;;;;;;;8.82;0.75;;;23.20;59.60;;;;;;4985950;28;20077;-66
2022/07/01 04:56:52;;;;;;;1.10;0.52;;;23.20;59.50;;;;;;4988966;28;20045;-64
2022/07/01 04:59:18;;;;;;;8.70;0.60;;;23.20;59.50;;;;;;4989912;28;20046;-65
2022/07/01 05:01:48;;;;;;;9.52;0.60;;;23.20;59.60;;;;;;4970972;28;20042;-65
2022/07/01 05:04:14;;;;;;;0.82;0.50;;;23.20;59.50;;;;;;4990514;28;20096;-65
2022/07/01 05:06:41;;;;;;;0.90;0.40;;;23.20;59.60;;;;;;4988786;28;20051;-63
2022/07/01 05:09:07;;;;;;;1.75;0.70;;;23.20;59.50;;;;;;4987991;28;20043;-66
2022/07/01 05:11:33;;;;;;;11.75;0.82;;;23.20;59.50;;;;;;4987948;28;20042;-66
2022/07/01 05:13:58;;;;;;;0.85;0.70;;;23.20;59.80;;;;;;4989528;28;20498;-70
2022/07/01 05:16:24;;;;;;;1.98;0.75;;;23.20;59.50;;;;;;4989952;28;20475;-66
2022/07/01 05:24:18;;;;;;;13.88;0.80;;;23.20;59.50;;;;;;4988623;28;20050;-65
2022/07/01 05:26:44;;;;;;;1.70;0.68;;;23.20;59.50;;;;;;4989426;28;20042;-66
2022/07/01 05:29:10;;;;;;;1.02;0.60;;;23.20;59.50;;;;;;4989191;28;20100;-66
2022/07/01 05:31:36;;;;;;;10.00;0.85;;;23.20;59.50;;;;;;4988271;28;20073;-66
2022/07/01 05:34:01;;;;;;;12.95;0.88;;;23.20;59.50;;;;;;4989486;28;20082;-65
2022/07/01 05:36:27;;;;;;;3.40;0.88;;;23.20;59.50;;;;;;4987381;28;20471;-66
2022/07/01 05:38:53;;;;;;;3.42;0.88;;;23.20;59.50;;;;;;4987141;28;20050;-66
2022/07/01 05:41:18;;;;;;;1.10;0.80;;;23.20;59.40;;;;;;4988099;28;20129;-67
2022/07/01 05:43:44;;;;;;;1.98;0.93;;;23.20;59.50;;;;;;4989627;28;20054;-67
2022/07/01 05:46:10;;;;;;;1.48;1.02;;;23.20;59.50;;;;;;4988325;28;20038;-65
2022/07/01 05:48:35;;;;;;;1.75;0.85;;;23.10;59.40;;;;;;4988922;28;20124;-67
2022/07/01 05:51:01;;;;;;;2.20;1.02;;;23.20;59.40;;;;;;4989423;28;20519;-68
2022/07/01 05:53:26;;;;;;;1.75;0.90;;;23.20;59.50;;;;;;4987647;28;20038;-69
2022/07/01 05:55:52;;;;;;;1.55;0.93;;;23.20;59.40;;;;;;4989388;28;20048;-70
2022/07/01 05:58:17;;;;;;;1.58;0.98;;;23.20;59.50;;;;;;4988473;28;20073;-70
2022/07/01 06:00:43;;;;;;;1.33;0.90;;;23.20;59.50;;;;;;4989601;28;20038;-69
2022/07/01 06:03:14;;;;;;;1.65;1.15;;;23.20;59.50;;;;;;4988686;28;20042;-67
2022/07/01 06:05:41;;;;;;;1.55;1.00;;;23.20;59.40;;;;;;4988345;28;20048;-67
2022/07/01 06:08:07;;;;;;;8.93;1.30;;;23.20;59.50;;;;;;4987143;28;20081;-70
2022/07/01 06:10:34;;;;;;;5.55;1.27;;;23.10;59.40;;;;;;4989011;28;20046;-68
2022/07/01 06:12:59;;;;;;;5.35;1.20;;;23.20;59.50;;;;;;4989406;28;20498;-70
2022/07/01 06:15:25;;;;;;;12.13;1.20;;;23.20;59.40;;;;;;4987933;28;20141;-69
2022/07/01 06:17:51;;;;;;;6.40;1.10;;;23.20;59.40;;;;;;4988926;28;20061;-66
2022/07/01 06:20:17;;;;;;;3.90;1.30;;;23.20;59.40;;;;;;4987202;28;20052;-67
2022/07/01 06:22:43;;;;;;;5.32;1.30;;;23.20;59.50;;;;;;4983526;28;20050;-65
2022/07/01 06:25:09;;;;;;;2.22;1.40;;;23.20;59.40;;;;;;4987060;28;20042;-69
2022/07/01 06:27:42;;;;;;;3.00;1.33;;;23.20;59.50;;;;;;4988702;28;20046;-69
2022/07/01 06:30:09;;;;;;;2.22;1.60;;;23.20;59.40;;;;;;4988482;28;20054;-69
2022/07/01 06:32:35;;;;;;;14.20;1.73;;;23.20;59.50;;;;;;4987310;28;20053;-70
2022/07/01 06:35:01;;;;;;;2.28;1.65;;;23.20;59.40;;;;;;4988133;28;20039;-69
2022/07/01 06:37:27;;;;;;;2.13;1.40;;;23.20;59.40;;;;;;4985474;28;20065;-67
2022/07/01 06:39:52;;;;;;;1.63;1.52;;;23.20;59.40;;;;;;4988042;28;20100;-68
2022/07/01 06:42:18;;;;;;;1.98;1.45;;;23.20;59.40;;;;;;4987953;28;20076;-70
2022/07/01 06:44:44;;;;;;;1.50;1.40;;;23.20;59.40;;;;;;4987503;28;20402;-69
2022/07/01 06:47:09;;;;;;;3.17;1.63;;;23.20;59.30;;;;;;4988278;28;20043;-69
2022/07/01 06:49:35;;;;;;;2.38;1.83;;;23.20;59.40;;;;;;4987226;28;20125;-68
2022/07/01 06:52:01;;;;;;;2.05;1.65;;;23.20;59.40;;;;;;4987848;28;20038;-69
2022/07/01 06:54:29;;;;;;;1.75;1.55;;;23.20;59.40;;;;;;4987595;28;20042;-67
2022/07/01 06:56:55;;;;;;;2.28;1.65;;;23.20;59.40;;;;;;4988623;28;20043;-69
2022/07/01 06:59:20;;;;;;;3.05;1.60;;;23.20;59.30;;;;;;4987785;28;20482;-68
2022/07/01 07:01:46;;;;;;;1.55;1.45;;;23.20;59.30;;;;;;4986570;28;20425;-69
2022/07/01 07:04:12;;;;;;;5.95;1.80;;;23.20;59.20;;;;;;4988126;28;20050;-69
2022/07/01 07:06:37;;;;;;;2.28;1.80;;;23.20;59.20;;;;;;4986951;28;20398;-67
2022/07/01 07:09:03;;;;;;;2.20;2.00;;;23.20;59.20;;;;;;4986637;28;20050;-68
2022/07/01 07:11:29;;;;;;;10.93;1.90;;;23.20;59.20;;;;;;4979957;28;20129;-66
2022/07/01 07:13:54;;;;;;;3.05;1.92;;;23.20;60.00;;;;;;4987841;28;20592;-69
2022/07/01 07:16:20;;;;;;;2.00;1.83;;;23.20;59.20;;;;;;4986514;28;20030;-68
2022/07/01 07:18:47;;;;;;;2.40;1.90;;;23.20;59.20;;;;;;4987371;28;20566;-66
2022/07/01 07:21:14;;;;;;;2.45;2.17;;;23.20;59.30;;;;;;4986217;28;20648;-70
2022/07/01 07:23:40;;;;;;;4.13;2.10;;;23.20;59.30;;;;;;4986310;28;20093;-69
2022/07/01 07:26:06;;;;;;;3.83;2.13;;;23.20;59.30;;;;;;4987601;28;20089;-68
2022/07/01 07:28:32;;;;;;;3.45;2.08;;;23.20;59.20;;;;;;4986492;28;20046;-68
2022/07/01 07:30:57;;;;;;;2.75;2.00;;;23.20;59.30;;;;;;4987190;28;20053;-70
2022/07/01 07:33:23;;;;;;;2.95;2.05;;;23.20;59.30;;;;;;4986049;28;20392;-67
2022/07/01 07:35:48;;;;;;;3.85;2.20;;;23.20;59.30;;;;;;4986532;28;20054;-67
2022/07/01 07:38:14;;;;;;;3.50;2.10;;;23.20;59.20;;;;;;4984962;28;20096;-68
2022/07/01 07:40:39;;;;;;;3.55;2.00;;;23.20;59.30;;;;;;4978754;28;20096;-66
2022/07/01 07:43:07;;;;;;;2.20;2.00;;;23.20;59.30;;;;;;4987101;28;20405;-67
2022/07/01 07:45:32;;;;;;;2.55;2.33;;;23.20;59.20;;;;;;4986495;28;20147;-67
2022/07/01 07:47:58;;;;;;;9.65;2.58;;;23.20;59.20;;;;;;4987291;28;20039;-68
2022/07/01 07:50:24;;;;;;;2.75;2.20;;;23.20;59.20;;;;;;4984446;28;20042;-68
2022/07/01 07:52:49;;;;;;;11.85;2.50;;;23.20;59.20;;;;;;4987002;28;20295;-66
2022/07/01 07:55:15;;;;;;;3.20;2.17;;;23.20;59.20;;;;;;4984771;28;20046;-66
2022/07/01 07:57:41;;;;;;;10.82;2.58;;;23.20;59.20;;;;;;4987286;28;20057;-68
2022/07/01 08:00:09;;;;;;;3.85;2.35;;;23.20;59.20;;;;;;4985947;28;20042;-66
2022/07/01 08:02:34;;;;;;;2.60;2.40;;;23.20;59.20;;;;;;4986439;28;20038;-65
2022/07/01 08:05:00;;;;;;;7.95;2.60;;;23.20;59.20;;;;;;4985775;28;20188;-65
2022/07/01 08:07:26;;;;;;;12.85;2.65;;;23.20;59.10;;;;;;4984723;28;20126;-67
2022/07/01 08:09:52;;;;;;;7.07;2.55;;;23.20;59.10;;;;;;4986128;28;20681;-67
2022/07/01 08:12:17;;;;;;;3.33;2.55;;;23.30;59.20;;;;;;4970521;28;20054;-67
2022/07/01 08:14:43;;;;;;;3.45;2.60;;;23.30;59.10;;;;;;4986462;28;20034;-65
2022/07/01 08:17:09;;;;;;;15.52;2.47;;;23.30;59.10;;;;;;4985966;28;20089;-68
2022/07/01 08:19:35;;;;;;;2.47;2.28;;;23.30;59.00;;;;;;4985636;28;20090;-65
2022/07/01 08:22:00;;;;;;;3.10;2.53;;;23.30;59.00;;;;;;4985924;28;20049;-67
2022/07/01 08:24:26;;;;;;;15.52;2.70;;;23.30;59.00;;;;;;4985663;28;20046;-66
2022/07/01 08:26:51;;;;;;;2.58;2.38;;;23.30;58.90;;;;;;4985846;28;20065;-66
2022/07/01 08:29:17;;;;;;;2.70;2.50;;;23.30;58.80;;;;;;4985139;28;20398;-66
2022/07/01 08:31:43;;;;;;;3.28;2.97;;;23.30;58.80;;;;;;4990319;28;20708;-65
2022/07/01 08:34:09;;;;;;;21.40;2.80;;;23.40;58.80;;;;;;4989244;28;20532;-67
2022/07/01 08:36:35;;;;;;;21.35;2.80;;;23.30;58.80;;;;;;4989957;28;20218;-65
2022/07/01 08:39:01;;;;;;;3.58;2.67;;;23.40;58.80;;;;;;4988839;28;20054;-65
2022/07/01 08:41:27;;;;;;;2.88;2.60;;;23.40;58.90;;;;;;4990533;28;20046;-65
2022/07/01 08:43:53;;;;;;;15.70;2.80;;;23.40;58.80;;;;;;4990790;28;20030;-69
2022/07/01 08:46:18;;;;;;;5.32;2.80;;;23.40;58.80;;;;;;4989811;28;20074;-69
2022/07/01 08:48:45;;;;;;;20.65;2.72;;;23.40;58.70;;;;;;4989929;28;20501;-68
2022/07/01 08:51:11;;;;;;;6.70;2.80;;;23.40;58.80;;;;;;4988574;28;20486;-68
2022/07/01 08:53:36;;;;;;;3.50;3.00;;;23.40;58.70;;;;;;4989785;28;20101;-69
2022/07/01 08:58:49;;;;;;;8.52;2.63;;;23.40;58.60;;;;;;4989641;28;20046;-67
2022/07/01 09:01:16;;;;;;;;;;;23.40;58.60;;;;;;4990495;28;20494;-67
2022/07/01 09:03:43;;;;;;;4.55;2.60;;;23.50;58.70;;;;;;4989121;28;19932;-65
2022/07/01 09:06:28;;;;;;;6.45;2.88;;;23.50;58.70;;;;;;4989534;28;20042;-65
2022/07/01 09:08:54;;;;;;;3.50;2.50;;;23.50;58.60;;;;;;4987551;28;20050;-65
2022/07/01 09:11:22;;;;;;;7.28;2.70;;;23.50;58.60;;;;;;4984904;28;20030;-65
2022/07/01 09:14:13;;;;;;;11.60;2.97;;;23.50;58.60;;;;;;4989835;28;20129;-66
2022/07/01 09:16:41;;;;;;;3.80;2.67;;;23.60;58.60;;;;;;4989056;28;20579;-65
2022/07/01 09:19:06;;;;;;;8.20;2.80;;;23.60;58.60;;;;;;4989368;28;20414;-65
2022/07/01 09:21:32;;;;;;;2.72;2.47;;;23.60;58.50;;;;;;4973468;28;20035;-66
2022/07/01 09:24:02;;;;;;;14.90;2.70;;;23.60;58.50;;;;;;4989447;28;20046;-65
2022/07/01 09:26:27;;;;;;;2.65;2.45;;;23.60;58.50;;;;;;4987270;28;20054;-65
2022/07/01 09:28:55;;;;;;;8.15;2.67;;;23.70;58.50;;;;;;4988606;28;20042;-66
2022/07/01 09:31:22;;;;;;;2.50;2.23;;;23.70;58.40;;;;;;4989754;28;20050;-65
2022/07/01 09:34:03;;;;;;;8.75;2.42;;;23.70;58.40;;;;;;4988525;28;20293;-66
2022/07/01 09:36:29;;;;;;;21.42;2.60;;;23.70;58.30;;;;;;4989287;28;20129;-66
2022/07/01 09:38:54;;;;;;;17.20;2.80;;;23.70;58.30;;;;;;4987502;28;20185;-64
2022/07/01 09:41:23;;;;;;;7.25;2.67;;;23.70;58.30;;;;;;4976010;28;20047;-67
2022/07/01 09:43:49;;;;;;;11.77;2.60;;;23.70;58.20;;;;;;4987320;28;20047;-65
2022/07/01 09:46:15;;;;;;;4.47;2.50;;;23.70;58.20;;;;;;4989479;28;20038;-65
2022/07/01 09:48:40;;;;;;;7.00;2.40;;;23.70;58.20;;;;;;4989609;28;20038;-66
2022/07/01 09:51:07;;;;;;;3.90;2.30;;;23.80;58.20;;;;;;4988176;28;20112;-65
2022/07/01 09:53:33;;;;;;;3.03;2.33;;;23.70;58.10;;;;;;4987823;28;20110;-64
2022/07/01 09:55:59;;;;;;;12.10;2.45;;;23.70;58.20;;;;;;4988581;28;20137;-66
2022/07/01 09:58:25;;;;;;;6.35;2.60;;;23.70;58.10;;;;;;4989662;28;20046;-65
2022/07/01 10:00:53;;;;;;;7.57;2.40;;;23.70;58.00;;;;;;4987121;28;20394;-65
2022/07/01 10:03:19;;;;;;;8.10;2.63;;;23.70;58.00;;;;;;4989004;28;20050;-66
2022/07/01 10:05:53;;;;;;;6.40;2.42;;;23.80;58.00;;;;;;4988132;28;20046;-66
2022/07/01 10:08:46;;;;;;;11.20;3.10;;;23.80;58.00;;;;;;4986448;28;20046;-66
2022/07/01 10:11:42;;;;;;;4.63;2.45;;;23.80;57.90;;;;;;4988630;28;20081;-66
2022/07/01 10:14:09;;;;;;;2.85;2.50;;;23.80;57.90;;;;;;4988226;28;20046;-65
2022/07/01 10:16:36;;;;;;;2.58;2.30;;;23.80;57.90;;;;;;4988338;28;20043;-65
2022/07/01 10:19:20;;;;;;;5.57;2.60;;;23.80;57.90;;;;;;4988725;28;20164;-65
2022/07/01 10:21:46;;;;;;;11.88;2.50;;;23.80;58.10;;;;;;4987407;28;20178;-65
2022/07/01 10:24:17;;;;;;;8.85;2.50;;;23.80;57.80;;;;;;4988562;28;20486;-64
2022/07/01 10:26:43;;;;;;;11.73;2.40;;;23.80;57.70;;;;;;4987792;28;20053;-64
2022/07/01 10:29:38;;;;;;;13.40;2.70;;;23.80;58.40;;;;;;4988115;28;20042;-65
2022/07/01 10:32:29;;;;;;;14.57;2.50;;;23.90;57.60;;;;;;4987282;28;20319;-65
2022/07/01 10:35:06;;;;;;;16.15;2.67;;;23.90;57.60;;;;;;4986918;28;20124;-64
2022/07/01 10:37:32;;;;;;;13.23;2.40;;;23.90;58.30;;;;;;4986601;28;20076;-65
2022/07/01 10:40:00;;;;;;;17.77;2.60;;;23.90;57.60;;;;;;4987843;28;20489;-66
2022/07/01 10:42:30;;;;;;;18.30;3.03;;;23.90;57.50;;;;;;4988860;28;20038;-65
2022/07/01 10:45:12;;;;;;;11.20;2.60;;;23.90;57.50;;;;;;4988832;28;20097;-64
2022/07/01 10:47:39;;;;;;;8.18;2.50;;;23.90;57.50;;;;;;4987584;28;20046;-66
2022/07/01 10:50:18;;;;;;;3.17;2.60;;;23.90;57.50;;;;;;4986799;28;20532;-66
2022/07/01 10:53:01;;;;;;;2.55;2.15;;;23.90;57.40;;;;;;4986007;28;20046;-66
2022/07/01 10:55:53;;;;;;;5.15;2.17;;;23.90;57.40;;;;;;4987447;28;20046;-69
2022/07/01 10:58:35;;;;;;;7.63;2.70;;;23.90;57.30;;;;;;4987788;28;20528;-65
2022/07/01 11:01:00;;;;;;;16.00;2.30;;;23.90;57.30;;;;;;4986473;28;20042;-66
2022/07/01 11:03:26;;;;;;;2.42;2.22;;;24.00;57.30;;;;;;4987821;28;20048;-66
2022/07/01 11:05:55;;;;;;;20.15;2.50;;;23.90;57.30;;;;;;4986703;28;20413;-64
2022/07/01 11:08:21;;;;;;;21.92;2.40;;;23.90;57.20;;;;;;4986454;28;20081;-66
2022/07/01 11:10:51;;;;;;;11.63;2.60;;;23.90;57.10;;;;;;4987278;28;20410;-65
2022/07/01 11:13:16;;;;;;;17.17;2.35;;;23.90;57.10;;;;;;4987028;28;20034;-65
2022/07/01 11:15:45;;;;;;;2.17;1.98;;;24.00;57.10;;;;;;4987934;28;20056;-67
2022/07/01 11:18:12;;;;;;;22.23;2.53;;;24.00;57.10;;;;;;4987013;28;20057;-65
2022/07/01 11:20:37;;;;;;;4.63;2.13;;;24.00;57.00;;;;;;4987260;28;20038;-64
2022/07/01 11:23:03;;;;;;;8.95;2.47;;;24.00;57.00;;;;;;4986468;28;20093;-67
2022/07/01 11:25:30;;;;;;;2.92;2.00;;;24.00;56.90;;;;;;4987557;28;20048;-67
2022/07/01 11:27:55;;;;;;;11.25;2.50;;;24.00;56.90;;;;;;4987440;28;20046;-66
2022/07/01 11:30:22;;;;;;;9.85;2.20;;;24.10;57.00;;;;;;4986079;28;20053;-65
2022/07/01 11:32:51;;;;;;;3.42;2.40;;;24.10;56.90;;;;;;4987463;28;20089;-65
2022/07/01 11:41:05;;;;;;;26.00;2.30;;;24.10;56.90;;;;;;4987261;28;20048;-70
2022/07/01 11:43:39;;;;;;;26.45;2.28;;;24.20;56.80;;;;;;4984662;28;20078;-69
2022/07/01 11:46:06;;;;;;;4.43;1.80;;;24.30;56.50;;;;;;4987209;28;20158;-70
2022/07/01 11:48:42;;;;;;;8.50;2.20;;;24.50;56.30;;;;;;4984449;28;20526;-69
2022/07/01 11:51:16;;;;;;;2.53;2.00;;;24.70;55.80;;;;;;4986320;28;20402;-70
2022/07/01 11:53:48;;;;;;;19.98;2.25;;;24.90;55.50;;;;;;4986513;28;20214;-70
2022/07/01 11:56:15;;;;;;;3.53;1.73;;;24.90;55.10;;;;;;4986889;28;20046;-69
2022/07/01 11:58:41;;;;;;;23.80;2.45;;;24.90;55.10;;;;;;4987647;28;20414;-66
2022/07/01 12:01:08;;;;;;;23.00;2.33;;;24.80;55.10;;;;;;4986276;28;20038;-71
2022/07/01 12:03:34;;;;;;;25.50;2.40;;;24.70;55.10;;;;;;4987023;28;20086;-65
2022/07/01 12:05:59;;;;;;;2.28;1.92;;;24.60;55.20;;;;;;4984828;28;20124;-67
2022/07/01 12:08:25;;;;;;;25.35;2.10;;;24.50;55.30;;;;;;4968910;28;20049;-67
2022/07/01 12:10:51;;;;;;;3.80;2.10;;;24.50;55.40;;;;;;4986283;28;20061;-67
2022/07/01 12:13:24;;;;;;;10.40;2.00;;;24.30;55.40;;;;;;4986536;28;20093;-68
2022/07/01 12:15:50;;;;;;;19.88;2.05;;;24.30;55.40;;;;;;4992020;28;20052;-67
2022/07/01 12:18:16;;;;;;;20.23;2.17;;;24.30;55.50;;;;;;4984650;28;20512;-69
2022/07/01 12:21:08;;;;;;;12.75;2.00;;;24.30;55.70;;;;;;4985868;28;20449;-66
2022/07/01 12:23:36;;;;;;;7.40;2.03;;;24.50;55.50;;;;;;4984250;28;20417;-66
2022/07/01 12:26:03;;;;;;;8.55;2.00;;;24.50;55.30;;;;;;4985523;28;20527;-65
2022/07/01 12:28:37;;;;;;;3.92;1.80;;;24.60;55.30;;;;;;4986321;28;20469;-69
2022/07/01 12:31:09;;;;;;;2.53;1.90;;;24.70;55.00;;;;;;4985244;28;20506;-67
2022/07/01 12:33:36;;;;;;;1.73;1.50;;;24.80;54.80;;;;;;4986504;28;20553;-64
2022/07/01 12:36:04;;;;;;;3.38;1.60;;;24.80;54.90;;;;;;4984996;28;20055;-70
2022/07/01 12:38:30;;;;;;;25.60;1.70;;;24.70;54.90;;;;;;4984623;28;20050;-65
2022/07/01 12:40:56;;;;;;;2.63;1.65;;;24.60;55.00;;;;;;4967893;28;20042;-65
2022/07/01 12:43:31;;;;;;;21.38;1.70;;;24.50;55.00;;;;;;4985983;28;20039;-65
2022/07/01 12:45:59;;;;;;;2.78;1.50;;;24.50;55.00;;;;;;4986411;28;20053;-63
2022/07/01 12:48:25;;;;;;;3.58;1.80;;;24.50;55.10;;;;;;4985310;28;20859;-66
2022/07/01 12:50:56;;;;;;;3.03;1.80;;;24.50;55.10;;;;;;4985731;28;20042;-65
2022/07/01 12:53:23;;;;;;;3.72;1.60;;;24.50;55.10;;;;;;4984851;28;20392;-66
2022/07/01 12:55:54;;;;;;;1.85;1.30;;;24.50;55.10;;;;;;4986703;28;20053;-65
2022/07/01 12:58:23;;;;;;;19.13;1.50;;;24.50;55.10;;;;;;4985868;28;20093;-68
2022/07/01 13:00:51;;;;;;;3.13;1.60;;;24.40;55.10;;;;;;4985341;28;20084;-68
2022/07/01 13:03:21;;;;;;;;;;;24.50;55.10;;;;;;4986810;28;20633;-67